createdAt,value
2022-10-17T00:00:01.651Z,1002.33
2022-10-17T00:05:01.511Z,1002.32
2022-10-17T00:10:02.021Z,1002.41
2022-10-17T00:15:01.713Z,1002.41
2022-10-17T00:20:01.899Z,1002.52
2022-10-17T00:25:01.348Z,1002.55
2022-10-17T00:30:02.044Z,1002.58
2022-10-17T00:35:01.462Z,1002.66
2022-10-17T00:40:02.030Z,1002.61
2022-10-17T00:45:01.703Z,1002.63
2022-10-17T00:50:07.163Z,1002.63
2022-10-17T00:55:01.417Z,1002.64
2022-10-17T01:00:01.376Z,1002.66
2022-10-17T01:05:01.491Z,1002.63
2022-10-17T01:10:01.528Z,1002.66
2022-10-17T01:15:01.286Z,1002.59
2022-10-17T01:20:01.743Z,1002.59
2022-10-17T01:30:01.563Z,1002.65
2022-10-17T01:35:01.317Z,1002.64
2022-10-17T01:40:01.670Z,1002.54
2022-10-17T01:45:02.195Z,1002.55
2022-10-17T01:50:02.871Z,1002.55
2022-10-17T01:55:02.207Z,1002.56
2022-10-17T02:00:01.272Z,1002.51
2022-10-17T02:05:06.872Z,1002.49
2022-10-17T02:10:02.719Z,1002.45
2022-10-17T02:15:01.862Z,1002.44
2022-10-17T02:20:01.577Z,1002.41
2022-10-17T02:25:01.408Z,1002.35
2022-10-17T02:30:02.096Z,1002.44
2022-10-17T02:35:01.876Z,1002.52
2022-10-17T02:40:02.363Z,1002.43
2022-10-17T02:45:02.016Z,1002.43
2022-10-17T02:50:01.621Z,1002.46
2022-10-17T02:55:01.303Z,1002.43
2022-10-17T03:00:01.644Z,1002.42
2022-10-17T03:05:01.323Z,1002.48
2022-10-17T03:10:01.453Z,1002.42
2022-10-17T03:15:01.524Z,1002.4
2022-10-17T03:20:01.983Z,1002.51
2022-10-17T03:25:01.971Z,1002.54
2022-10-17T03:30:01.976Z,1002.49
2022-10-17T03:35:01.288Z,1002.56
2022-10-17T03:40:01.556Z,1002.57
2022-10-17T03:45:01.973Z,1002.57
2022-10-17T03:50:01.955Z,1002.59
2022-10-17T03:55:02.023Z,1002.56
2022-10-17T04:00:01.227Z,1002.62
2022-10-17T04:05:02.042Z,1002.65
2022-10-17T04:10:02.214Z,1002.72
2022-10-17T04:15:01.909Z,1002.76
2022-10-17T04:20:02.029Z,1002.74
2022-10-17T04:25:01.673Z,1002.63
2022-10-17T04:30:01.866Z,1002.72
2022-10-17T04:35:01.573Z,1002.78
2022-10-17T04:40:01.926Z,1002.87
2022-10-17T04:45:01.465Z,1002.92
2022-10-17T04:50:01.621Z,1002.98
2022-10-17T04:55:02.150Z,1003.05
2022-10-17T05:00:01.555Z,1003.08
2022-10-17T05:05:02.264Z,1003.02
2022-10-17T05:10:01.847Z,1002.89
2022-10-17T05:15:01.695Z,1002.8
2022-10-17T05:20:01.444Z,1002.88
2022-10-17T05:25:01.771Z,1002.85
2022-10-17T05:30:01.907Z,1002.99
2022-10-17T05:35:01.626Z,1003.1
2022-10-17T05:40:01.360Z,1003.16
2022-10-17T05:45:02.195Z,1003.24
2022-10-17T05:50:01.600Z,1003.38
2022-10-17T05:55:02.123Z,1003.25
2022-10-17T06:00:01.466Z,1003.24
2022-10-17T06:05:02.020Z,1003.21
2022-10-17T06:10:02.137Z,1003.17
2022-10-17T06:15:01.740Z,1003.17
2022-10-17T06:20:04.174Z,1003.29
2022-10-17T06:25:02.476Z,1003.42
2022-10-17T06:30:01.563Z,1003.4
2022-10-17T06:35:01.726Z,1003.52
2022-10-17T06:40:01.612Z,1003.58
2022-10-17T06:45:01.817Z,1003.77
2022-10-17T06:50:02.029Z,1003.92
2022-10-17T06:55:07.064Z,1003.98
2022-10-17T07:00:01.441Z,1003.99
2022-10-17T07:05:01.933Z,1003.91
2022-10-17T07:10:01.666Z,1003.96
2022-10-17T07:15:01.722Z,1004.1
2022-10-17T07:20:02.096Z,1004.12
2022-10-17T07:25:01.856Z,1004.14
2022-10-17T07:30:01.445Z,1004.11
2022-10-17T07:35:02.241Z,1004.12
2022-10-17T07:40:01.703Z,1004.18
2022-10-17T07:45:01.827Z,1004.27
2022-10-17T07:50:02.005Z,1004.25
2022-10-17T07:55:02.233Z,1004.25
2022-10-17T08:00:01.465Z,1004.16
2022-10-17T08:05:01.724Z,1004.26
2022-10-17T08:10:01.564Z,1004.31
2022-10-17T08:15:01.465Z,1004.31
2022-10-17T08:20:01.292Z,1004.22
2022-10-17T08:25:01.328Z,1004.22
2022-10-17T08:30:02.199Z,1004.28
2022-10-17T08:35:01.750Z,1004.48
2022-10-17T08:40:01.442Z,1004.6
2022-10-17T08:45:01.603Z,1004.68
2022-10-17T08:50:01.509Z,1004.71
2022-10-17T08:55:01.927Z,1004.63
2022-10-17T09:00:02.118Z,1004.7
2022-10-17T09:05:01.418Z,1004.86
2022-10-17T09:10:01.404Z,1004.82
2022-10-17T09:15:02.062Z,1004.71
2022-10-17T09:20:01.502Z,1004.64
2022-10-17T09:25:01.604Z,1004.75
2022-10-17T09:30:02.262Z,1004.87
2022-10-17T09:35:01.915Z,1005.02
2022-10-17T09:40:01.940Z,1005.1
2022-10-17T09:45:01.430Z,1005.12
2022-10-17T09:50:01.424Z,1005.32
2022-10-17T09:55:01.633Z,1005.39
2022-10-17T10:00:02.306Z,1005.4
2022-10-17T10:05:05.396Z,1005.35
2022-10-17T10:10:02.018Z,1005.28
2022-10-17T10:15:02.146Z,1005.39
2022-10-17T10:20:02.031Z,1005.49
2022-10-17T10:25:01.713Z,1005.57
2022-10-17T10:30:02.037Z,1005.6
2022-10-17T10:35:02.098Z,1005.64
2022-10-17T10:40:01.513Z,1005.65
2022-10-17T10:45:02.229Z,1005.74
2022-10-17T10:50:02.158Z,1005.74
2022-10-17T10:55:01.274Z,1005.92
2022-10-17T11:00:01.277Z,1005.98
2022-10-17T11:05:01.983Z,1006
2022-10-17T11:10:01.909Z,1006.04
2022-10-17T11:15:01.386Z,1006.08
2022-10-17T11:20:02.198Z,1006.09
2022-10-17T11:25:01.755Z,1005.9
2022-10-17T11:30:01.404Z,1005.92
2022-10-17T11:35:01.836Z,1005.93
2022-10-17T11:40:01.391Z,1005.97
2022-10-17T11:45:02.209Z,1006.01
2022-10-17T11:51:59.873Z,1005.98
2022-10-17T11:55:01.374Z,1006
2022-10-17T12:00:02.079Z,1006.04
2022-10-17T12:05:01.266Z,1005.93
2022-10-17T12:10:01.461Z,1005.97
2022-10-17T12:15:02.026Z,1006.06
2022-10-17T12:20:01.897Z,1006.08
2022-10-17T12:25:01.641Z,1006.05
2022-10-17T12:30:02.049Z,1006.06
2022-10-17T12:35:02.217Z,1006.18
2022-10-17T12:40:01.947Z,1006.2
2022-10-17T12:45:01.428Z,1006.3
2022-10-17T12:50:01.439Z,1006.2
2022-10-17T12:55:12.765Z,1006.25
2022-10-17T13:00:01.368Z,1006.26
2022-10-17T13:05:01.579Z,1006.31
2022-10-17T13:10:02.255Z,1006.36
2022-10-17T13:15:01.677Z,1006.42
2022-10-17T13:20:01.961Z,1006.5
2022-10-17T13:25:02.185Z,1006.48
2022-10-17T13:30:02.208Z,1006.58
2022-10-17T13:35:01.509Z,1006.67
2022-10-17T13:40:11.351Z,1006.69
2022-10-17T13:45:02.192Z,1006.73
2022-10-17T13:50:01.387Z,1006.71
2022-10-17T13:55:02.255Z,1006.81
2022-10-17T14:00:02.175Z,1006.84
2022-10-17T14:05:17.746Z,1006.84
2022-10-17T14:10:02.228Z,1006.85
2022-10-17T14:15:10.553Z,1006.76
2022-10-17T14:20:16.433Z,1006.79
2022-10-17T14:25:02.709Z,1006.76
2022-10-17T14:30:01.790Z,1006.81
2022-10-17T14:35:18.754Z,1006.84
2022-10-17T14:40:01.697Z,1006.99
2022-10-17T14:45:02.125Z,1007.02
2022-10-17T14:50:01.367Z,1007.01
2022-10-17T14:55:02.211Z,1007.12
2022-10-17T15:00:01.625Z,1007.15
2022-10-17T15:05:02.085Z,1007.33
2022-10-17T15:10:01.318Z,1007.39
2022-10-17T15:15:01.597Z,1007.41
2022-10-17T15:20:02.065Z,1007.45
2022-10-17T15:25:01.267Z,1007.5
2022-10-17T15:30:01.480Z,1007.51
2022-10-17T15:35:02.211Z,1007.46
2022-10-17T15:40:01.590Z,1007.44
2022-10-17T15:45:02.125Z,1007.42
2022-10-17T15:50:02.132Z,1007.58
2022-10-17T15:55:04.363Z,1007.77
2022-10-17T16:00:01.396Z,1007.87
2022-10-17T16:05:01.557Z,1007.97
2022-10-17T16:10:01.648Z,1008.05
2022-10-17T16:15:01.615Z,1008.04
2022-10-17T16:20:01.364Z,1008.08
2022-10-17T16:25:02.013Z,1008.1
2022-10-17T16:30:01.724Z,1008.21
2022-10-17T16:35:01.636Z,1008.21
2022-10-17T16:40:01.644Z,1008.26
2022-10-17T16:45:01.251Z,1008.3
2022-10-17T16:50:01.298Z,1008.28
2022-10-17T16:55:01.564Z,1008.34
2022-10-17T17:00:01.787Z,1008.36
2022-10-17T17:05:01.605Z,1008.42
2022-10-17T17:10:01.940Z,1008.39
2022-10-17T17:15:01.865Z,1008.57
2022-10-17T17:20:01.922Z,1008.52
2022-10-17T17:25:02.043Z,1008.48
2022-10-17T17:30:01.420Z,1008.54
2022-10-17T17:35:01.794Z,1008.63
2022-10-17T17:40:01.368Z,1008.75
2022-10-17T17:45:01.551Z,1008.72
2022-10-17T17:50:01.955Z,1008.89
2022-10-17T17:55:02.518Z,1008.94
2022-10-17T18:00:01.305Z,1009.08
2022-10-17T18:05:02.081Z,1009.07
2022-10-17T18:10:01.908Z,1009.08
2022-10-17T18:15:01.328Z,1009.13
2022-10-17T18:20:02.122Z,1009.23
2022-10-17T18:25:01.279Z,1009.21
2022-10-17T18:30:01.866Z,1009.36
2022-10-17T18:35:02.030Z,1009.36
2022-10-17T18:40:02.177Z,1009.35
2022-10-17T18:45:01.900Z,1009.35
2022-10-17T18:50:02.217Z,1009.54
2022-10-17T18:55:01.498Z,1009.46
2022-10-17T19:00:01.936Z,1009.49
2022-10-17T19:05:01.418Z,1009.48
2022-10-17T19:10:01.446Z,1009.5
2022-10-17T19:15:02.016Z,1009.56
2022-10-17T19:20:01.624Z,1009.51
2022-10-17T19:25:01.256Z,1009.61
2022-10-17T19:30:01.723Z,1009.69
2022-10-17T19:35:02.049Z,1009.66
2022-10-17T19:40:01.472Z,1009.69
2022-10-17T19:45:01.513Z,1009.81
2022-10-17T19:50:05.014Z,1009.93
2022-10-17T19:55:01.341Z,1009.91
2022-10-17T20:00:02.007Z,1009.91
2022-10-17T20:05:17.539Z,1009.87
2022-10-17T20:10:01.577Z,1009.79
2022-10-17T20:15:02.241Z,1009.76
2022-10-17T20:20:04.883Z,1009.87
2022-10-17T20:25:01.631Z,1009.96
2022-10-17T20:30:01.302Z,1010.04
2022-10-17T20:35:02.056Z,1010.02
2022-10-17T20:40:33.091Z,1010.04
2022-10-17T20:45:01.770Z,1009.96
2022-10-17T20:50:01.539Z,1009.98
2022-10-17T20:55:01.374Z,1010
2022-10-17T21:00:02.087Z,1009.95
2022-10-17T21:05:01.823Z,1009.98
2022-10-17T21:10:17.739Z,1009.99
2022-10-17T21:15:01.290Z,1010.07
2022-10-17T21:20:01.693Z,1010.11
2022-10-17T21:25:01.829Z,1010.2
2022-10-17T21:30:01.430Z,1010.22
2022-10-17T21:35:01.727Z,1010.25
2022-10-17T21:40:01.471Z,1010.28
2022-10-17T21:45:04.769Z,1010.22
2022-10-17T21:50:01.643Z,1010.25
2022-10-17T21:55:01.407Z,1010.33
2022-10-17T22:00:02.275Z,1010.26
2022-10-17T22:05:01.514Z,1010.27
2022-10-17T22:10:01.446Z,1010.28
2022-10-17T22:15:01.703Z,1010.29
2022-10-17T22:20:02.053Z,1010.28
2022-10-17T22:25:01.645Z,1010.33
2022-10-17T22:30:02.183Z,1010.34
2022-10-17T22:35:01.369Z,1010.2
2022-10-17T22:40:01.612Z,1010.29
2022-10-17T22:45:01.899Z,1010.23
2022-10-17T22:50:01.587Z,1010.18
2022-10-17T22:55:01.466Z,1010.16
2022-10-17T23:00:01.677Z,1010.25
2022-10-17T23:05:01.828Z,1010.08
2022-10-17T23:10:01.893Z,1010.06
2022-10-17T23:15:01.576Z,1010.06
2022-10-17T23:20:01.333Z,1010.04
2022-10-17T23:25:01.262Z,1010.07
2022-10-17T23:30:01.340Z,1009.99
2022-10-17T23:35:01.870Z,1010.01
2022-10-17T23:40:01.622Z,1010.02
2022-10-17T23:45:01.632Z,1010.09
2022-10-17T23:50:02.008Z,1010.12
2022-10-17T23:55:01.953Z,1010.16
